sensor_id;sensor_type;location;lat;lon;timestamp;P1;durP1;ratioP1;P2;durP2;ratioP2
7471;SDS011;3777;48.722;8.110;2022-10-17T00:01:39;9.53;;;6.20;;
7471;SDS011;3777;48.722;8.110;2022-10-17T00:04:06;8.23;;;6.23;;
7471;SDS011;3777;48.722;8.110;2022-10-17T00:06:33;8.83;;;6.00;;
7471;SDS011;3777;48.722;8.110;2022-10-17T00:09:00;6.80;;;5.67;;
7471;SDS011;3777;48.722;8.110;2022-10-17T00:11:29;9.03;;;5.80;;
7471;SDS011;3777;48.722;8.110;2022-10-17T00:13:56;6.60;;;5.90;;
7471;SDS011;3777;48.722;8.110;2022-10-17T00:16:24;7.60;;;5.60;;
7471;SDS011;3777;48.722;8.110;2022-10-17T00:18:52;7.53;;;5.60;;
7471;SDS011;3777;48.722;8.110;2022-10-17T00:21:19;7.17;;;6.37;;
7471;SDS011;3777;48.722;8.110;2022-10-17T00:23:47;8.57;;;6.50;;
7471;SDS011;3777;48.722;8.110;2022-10-17T00:26:15;10.80;;;6.70;;
7471;SDS011;3777;48.722;8.110;2022-10-17T00:28:45;8.40;;;5.90;;
7471;SDS011;3777;48.722;8.110;2022-10-17T00:31:13;6.80;;;5.50;;
7471;SDS011;3777;48.722;8.110;2022-10-17T00:33:42;9.63;;;5.90;;
7471;SDS011;3777;48.722;8.110;2022-10-17T00:36:10;9.30;;;6.10;;
7471;SDS011;3777;48.722;8.110;2022-10-17T00:38:38;9.50;;;6.00;;
7471;SDS011;3777;48.722;8.110;2022-10-17T00:41:07;6.67;;;5.73;;
7471;SDS011;3777;48.722;8.110;2022-10-17T00:43:49;7.97;;;6.07;;
7471;SDS011;3777;48.722;8.110;2022-10-17T00:46:18;9.30;;;5.77;;
7471;SDS011;3777;48.722;8.110;2022-10-17T00:48:48;7.70;;;5.53;;
7471;SDS011;3777;48.722;8.110;2022-10-17T00:51:18;7.50;;;5.60;;
7471;SDS011;3777;48.722;8.110;2022-10-17T00:53:50;6.87;;;5.53;;
7471;SDS011;3777;48.722;8.110;2022-10-17T00:56:17;6.77;;;5.73;;
7471;SDS011;3777;48.722;8.110;2022-10-17T00:58:45;7.67;;;5.77;;
7471;SDS011;3777;48.722;8.110;2022-10-17T01:01:13;9.00;;;5.80;;
7471;SDS011;3777;48.722;8.110;2022-10-17T01:03:40;6.47;;;5.37;;
7471;SDS011;3777;48.722;8.110;2022-10-17T01:06:07;9.40;;;6.03;;
7471;SDS011;3777;48.722;8.110;2022-10-17T01:08:34;10.33;;;5.93;;
7471;SDS011;3777;48.722;8.110;2022-10-17T01:11:03;7.37;;;5.60;;
7471;SDS011;3777;48.722;8.110;2022-10-17T01:13:37;7.43;;;5.60;;
7471;SDS011;3777;48.722;8.110;2022-10-17T01:16:08;6.73;;;5.53;;
7471;SDS011;3777;48.722;8.110;2022-10-17T01:18:46;6.97;;;5.67;;
7471;SDS011;3777;48.722;8.110;2022-10-17T01:21:36;6.97;;;5.63;;
7471;SDS011;3777;48.722;8.110;2022-10-17T01:24:24;7.67;;;5.27;;
7471;SDS011;3777;48.722;8.110;2022-10-17T01:27:29;9.20;;;5.80;;
7471;SDS011;3777;48.722;8.110;2022-10-17T01:30:15;6.80;;;5.47;;
7471;SDS011;3777;48.722;8.110;2022-10-17T01:33:20;8.93;;;5.20;;
7471;SDS011;3777;48.722;8.110;2022-10-17T01:35:56;6.37;;;5.57;;
7471;SDS011;3777;48.722;8.110;2022-10-17T01:38:28;7.57;;;5.47;;
7471;SDS011;3777;48.722;8.110;2022-10-17T01:40:59;5.77;;;5.27;;
7471;SDS011;3777;48.722;8.110;2022-10-17T01:43:31;7.30;;;5.23;;
7471;SDS011;3777;48.722;8.110;2022-10-17T01:46:02;5.47;;;4.97;;
7471;SDS011;3777;48.722;8.110;2022-10-17T01:48:36;6.83;;;5.03;;
7471;SDS011;3777;48.722;8.110;2022-10-17T01:51:08;7.60;;;5.67;;
7471;SDS011;3777;48.722;8.110;2022-10-17T01:53:40;5.47;;;4.90;;
7471;SDS011;3777;48.722;8.110;2022-10-17T01:56:11;6.77;;;5.07;;
7471;SDS011;3777;48.722;8.110;2022-10-17T01:58:42;5.97;;;4.90;;
7471;SDS011;3777;48.722;8.110;2022-10-17T02:01:15;7.30;;;4.70;;
7471;SDS011;3777;48.722;8.110;2022-10-17T02:03:45;6.63;;;4.90;;
7471;SDS011;3777;48.722;8.110;2022-10-17T02:06:15;6.20;;;4.60;;
7471;SDS011;3777;48.722;8.110;2022-10-17T02:08:43;7.43;;;4.80;;
7471;SDS011;3777;48.722;8.110;2022-10-17T02:11:13;5.30;;;4.80;;
7471;SDS011;3777;48.722;8.110;2022-10-17T02:13:49;6.33;;;5.10;;
7471;SDS011;3777;48.722;8.110;2022-10-17T02:16:28;7.83;;;4.87;;
7471;SDS011;3777;48.722;8.110;2022-10-17T02:19:06;6.30;;;5.07;;
7471;SDS011;3777;48.722;8.110;2022-10-17T02:21:55;6.10;;;5.03;;
7471;SDS011;3777;48.722;8.110;2022-10-17T02:24:32;6.47;;;5.10;;
7471;SDS011;3777;48.722;8.110;2022-10-17T02:27:07;7.13;;;4.87;;
7471;SDS011;3777;48.722;8.110;2022-10-17T02:29:43;7.50;;;5.30;;
7471;SDS011;3777;48.722;8.110;2022-10-17T02:32:13;6.47;;;5.17;;
7471;SDS011;3777;48.722;8.110;2022-10-17T02:34:49;5.80;;;5.10;;
7471;SDS011;3777;48.722;8.110;2022-10-17T02:37:19;6.03;;;4.93;;
7471;SDS011;3777;48.722;8.110;2022-10-17T02:39:50;5.23;;;4.73;;
7471;SDS011;3777;48.722;8.110;2022-10-17T02:42:19;6.27;;;5.00;;
7471;SDS011;3777;48.722;8.110;2022-10-17T02:44:48;5.67;;;5.10;;
7471;SDS011;3777;48.722;8.110;2022-10-17T02:47:16;6.97;;;4.77;;
7471;SDS011;3777;48.722;8.110;2022-10-17T02:49:50;9.43;;;5.17;;
7471;SDS011;3777;48.722;8.110;2022-10-17T02:52:20;6.20;;;4.67;;
7471;SDS011;3777;48.722;8.110;2022-10-17T02:54:53;7.77;;;4.87;;
7471;SDS011;3777;48.722;8.110;2022-10-17T02:57:26;6.10;;;4.77;;
7471;SDS011;3777;48.722;8.110;2022-10-17T02:59:56;6.03;;;4.60;;
7471;SDS011;3777;48.722;8.110;2022-10-17T03:02:26;5.37;;;4.60;;
7471;SDS011;3777;48.722;8.110;2022-10-17T03:04:54;5.33;;;4.43;;
7471;SDS011;3777;48.722;8.110;2022-10-17T03:07:21;5.97;;;4.77;;
7471;SDS011;3777;48.722;8.110;2022-10-17T03:09:48;6.40;;;4.83;;
7471;SDS011;3777;48.722;8.110;2022-10-17T03:12:15;5.50;;;4.20;;
7471;SDS011;3777;48.722;8.110;2022-10-17T03:14:42;5.57;;;5.07;;
7471;SDS011;3777;48.722;8.110;2022-10-17T03:17:09;6.17;;;4.97;;
7471;SDS011;3777;48.722;8.110;2022-10-17T03:19:36;5.23;;;4.73;;
7471;SDS011;3777;48.722;8.110;2022-10-17T03:22:04;5.73;;;4.90;;
7471;SDS011;3777;48.722;8.110;2022-10-17T03:24:31;5.83;;;4.90;;
7471;SDS011;3777;48.722;8.110;2022-10-17T03:26:58;5.40;;;4.83;;
7471;SDS011;3777;48.722;8.110;2022-10-17T03:29:25;6.10;;;4.83;;
7471;SDS011;3777;48.722;8.110;2022-10-17T03:31:52;9.27;;;5.30;;
7471;SDS011;3777;48.722;8.110;2022-10-17T03:34:19;7.63;;;4.67;;
7471;SDS011;3777;48.722;8.110;2022-10-17T03:36:46;5.67;;;4.73;;
7471;SDS011;3777;48.722;8.110;2022-10-17T03:39:14;5.17;;;4.50;;
7471;SDS011;3777;48.722;8.110;2022-10-17T03:41:41;7.83;;;4.83;;
7471;SDS011;3777;48.722;8.110;2022-10-17T03:44:08;6.43;;;4.83;;
7471;SDS011;3777;48.722;8.110;2022-10-17T03:46:35;5.50;;;5.00;;
7471;SDS011;3777;48.722;8.110;2022-10-17T03:49:02;7.23;;;4.90;;
7471;SDS011;3777;48.722;8.110;2022-10-17T03:51:29;7.73;;;4.70;;
7471;SDS011;3777;48.722;8.110;2022-10-17T03:53:57;4.90;;;4.47;;
7471;SDS011;3777;48.722;8.110;2022-10-17T03:56:26;6.30;;;4.97;;
7471;SDS011;3777;48.722;8.110;2022-10-17T03:58:53;6.07;;;4.73;;
7471;SDS011;3777;48.722;8.110;2022-10-17T04:01:20;7.20;;;5.00;;
7471;SDS011;3777;48.722;8.110;2022-10-17T04:03:48;6.73;;;4.77;;
7471;SDS011;3777;48.722;8.110;2022-10-17T04:06:15;6.43;;;4.90;;
7471;SDS011;3777;48.722;8.110;2022-10-17T04:08:43;7.03;;;4.53;;
7471;SDS011;3777;48.722;8.110;2022-10-17T04:11:10;7.70;;;5.27;;
7471;SDS011;3777;48.722;8.110;2022-10-17T04:13:41;6.57;;;4.67;;
7471;SDS011;3777;48.722;8.110;2022-10-17T04:16:09;7.23;;;4.60;;
7471;SDS011;3777;48.722;8.110;2022-10-17T04:18:38;7.23;;;4.73;;
7471;SDS011;3777;48.722;8.110;2022-10-17T04:21:05;8.60;;;6.13;;
7471;SDS011;3777;48.722;8.110;2022-10-17T04:23:33;9.50;;;5.93;;
7471;SDS011;3777;48.722;8.110;2022-10-17T04:26:00;7.93;;;4.93;;
7471;SDS011;3777;48.722;8.110;2022-10-17T04:28:28;6.47;;;4.87;;
7471;SDS011;3777;48.722;8.110;2022-10-17T04:30:57;6.43;;;4.80;;
7471;SDS011;3777;48.722;8.110;2022-10-17T04:33:25;5.47;;;4.83;;
7471;SDS011;3777;48.722;8.110;2022-10-17T04:35:56;5.83;;;4.93;;
7471;SDS011;3777;48.722;8.110;2022-10-17T04:38:23;7.00;;;5.33;;
7471;SDS011;3777;48.722;8.110;2022-10-17T04:40:50;8.30;;;5.73;;
7471;SDS011;3777;48.722;8.110;2022-10-17T04:43:17;7.00;;;5.03;;
7471;SDS011;3777;48.722;8.110;2022-10-17T04:45:44;6.90;;;4.90;;
7471;SDS011;3777;48.722;8.110;2022-10-17T04:48:13;8.13;;;5.10;;
7471;SDS011;3777;48.722;8.110;2022-10-17T04:50:40;6.33;;;4.60;;
7471;SDS011;3777;48.722;8.110;2022-10-17T04:53:06;6.67;;;5.07;;
7471;SDS011;3777;48.722;8.110;2022-10-17T04:55:35;6.43;;;4.50;;
7471;SDS011;3777;48.722;8.110;2022-10-17T04:58:03;5.80;;;4.37;;
7471;SDS011;3777;48.722;8.110;2022-10-17T05:00:30;5.17;;;4.20;;
7471;SDS011;3777;48.722;8.110;2022-10-17T05:02:57;4.80;;;3.60;;
7471;SDS011;3777;48.722;8.110;2022-10-17T05:05:25;4.83;;;3.83;;
7471;SDS011;3777;48.722;8.110;2022-10-17T05:07:52;4.43;;;3.60;;
7471;SDS011;3777;48.722;8.110;2022-10-17T05:10:19;4.07;;;3.67;;
7471;SDS011;3777;48.722;8.110;2022-10-17T05:12:46;4.37;;;3.87;;
7471;SDS011;3777;48.722;8.110;2022-10-17T05:15:13;4.90;;;4.17;;
7471;SDS011;3777;48.722;8.110;2022-10-17T05:17:40;7.90;;;3.63;;
7471;SDS011;3777;48.722;8.110;2022-10-17T05:20:08;4.20;;;3.60;;
7471;SDS011;3777;48.722;8.110;2022-10-17T05:22:37;7.20;;;4.83;;
7471;SDS011;3777;48.722;8.110;2022-10-17T05:25:05;6.17;;;4.30;;
7471;SDS011;3777;48.722;8.110;2022-10-17T05:27:32;4.53;;;4.10;;
7471;SDS011;3777;48.722;8.110;2022-10-17T05:29:59;5.67;;;4.20;;
7471;SDS011;3777;48.722;8.110;2022-10-17T05:32:26;7.13;;;4.27;;
7471;SDS011;3777;48.722;8.110;2022-10-17T05:34:53;5.43;;;4.30;;
7471;SDS011;3777;48.722;8.110;2022-10-17T05:37:20;7.73;;;4.20;;
7471;SDS011;3777;48.722;8.110;2022-10-17T05:39:48;9.37;;;4.30;;
7471;SDS011;3777;48.722;8.110;2022-10-17T05:42:15;7.07;;;4.70;;
7471;SDS011;3777;48.722;8.110;2022-10-17T05:44:42;5.77;;;3.60;;
7471;SDS011;3777;48.722;8.110;2022-10-17T05:47:09;4.03;;;3.63;;
7471;SDS011;3777;48.722;8.110;2022-10-17T05:49:36;4.67;;;3.50;;
7471;SDS011;3777;48.722;8.110;2022-10-17T05:52:03;7.47;;;3.73;;
7471;SDS011;3777;48.722;8.110;2022-10-17T05:54:30;5.37;;;3.80;;
7471;SDS011;3777;48.722;8.110;2022-10-17T05:56:58;4.50;;;4.00;;
7471;SDS011;3777;48.722;8.110;2022-10-17T05:59:25;5.87;;;3.73;;
7471;SDS011;3777;48.722;8.110;2022-10-17T06:01:53;6.60;;;4.30;;
7471;SDS011;3777;48.722;8.110;2022-10-17T06:04:20;6.30;;;3.70;;
7471;SDS011;3777;48.722;8.110;2022-10-17T06:06:47;5.80;;;4.07;;
7471;SDS011;3777;48.722;8.110;2022-10-17T06:09:14;4.47;;;3.80;;
7471;SDS011;3777;48.722;8.110;2022-10-17T06:11:41;4.53;;;3.83;;
7471;SDS011;3777;48.722;8.110;2022-10-17T06:14:09;5.70;;;3.70;;
7471;SDS011;3777;48.722;8.110;2022-10-17T06:16:36;5.40;;;3.60;;
7471;SDS011;3777;48.722;8.110;2022-10-17T06:19:03;7.13;;;4.03;;
7471;SDS011;3777;48.722;8.110;2022-10-17T06:21:30;4.53;;;4.03;;
7471;SDS011;3777;48.722;8.110;2022-10-17T06:24:00;4.50;;;3.87;;
7471;SDS011;3777;48.722;8.110;2022-10-17T06:26:27;4.87;;;3.80;;
7471;SDS011;3777;48.722;8.110;2022-10-17T06:28:54;4.90;;;3.80;;
7471;SDS011;3777;48.722;8.110;2022-10-17T06:31:22;4.90;;;3.90;;
7471;SDS011;3777;48.722;8.110;2022-10-17T06:33:49;5.83;;;4.23;;
7471;SDS011;3777;48.722;8.110;2022-10-17T06:36:16;6.23;;;4.53;;
7471;SDS011;3777;48.722;8.110;2022-10-17T06:38:44;4.07;;;3.60;;
7471;SDS011;3777;48.722;8.110;2022-10-17T06:41:11;5.03;;;4.10;;
7471;SDS011;3777;48.722;8.110;2022-10-17T06:43:40;4.67;;;3.80;;
7471;SDS011;3777;48.722;8.110;2022-10-17T06:46:10;4.77;;;4.27;;
7471;SDS011;3777;48.722;8.110;2022-10-17T06:48:39;4.07;;;3.60;;
7471;SDS011;3777;48.722;8.110;2022-10-17T06:51:06;5.07;;;4.57;;
7471;SDS011;3777;48.722;8.110;2022-10-17T06:53:35;7.80;;;4.33;;
7471;SDS011;3777;48.722;8.110;2022-10-17T06:56:04;6.87;;;3.90;;
7471;SDS011;3777;48.722;8.110;2022-10-17T06:58:32;7.40;;;4.50;;
7471;SDS011;3777;48.722;8.110;2022-10-17T07:01:01;9.43;;;4.30;;
7471;SDS011;3777;48.722;8.110;2022-10-17T07:03:30;12.63;;;4.77;;
7471;SDS011;3777;48.722;8.110;2022-10-17T07:05:58;9.87;;;5.10;;
7471;SDS011;3777;48.722;8.110;2022-10-17T07:08:25;8.23;;;5.07;;
7471;SDS011;3777;48.722;8.110;2022-10-17T07:10:53;7.37;;;5.20;;
7471;SDS011;3777;48.722;8.110;2022-10-17T07:13:20;6.13;;;4.93;;
7471;SDS011;3777;48.722;8.110;2022-10-17T07:15:47;5.80;;;5.20;;
7471;SDS011;3777;48.722;8.110;2022-10-17T07:18:14;5.27;;;4.77;;
7471;SDS011;3777;48.722;8.110;2022-10-17T07:20:41;6.20;;;5.60;;
7471;SDS011;3777;48.722;8.110;2022-10-17T07:23:10;6.20;;;5.60;;
7471;SDS011;3777;48.722;8.110;2022-10-17T07:25:36;7.83;;;6.57;;
7471;SDS011;3777;48.722;8.110;2022-10-17T07:28:03;7.30;;;6.57;;
7471;SDS011;3777;48.722;8.110;2022-10-17T07:30:31;6.70;;;5.83;;
7471;SDS011;3777;48.722;8.110;2022-10-17T07:32:58;11.47;;;7.53;;
7471;SDS011;3777;48.722;8.110;2022-10-17T07:35:25;8.50;;;6.50;;
7471;SDS011;3777;48.722;8.110;2022-10-17T07:37:52;10.23;;;7.20;;
7471;SDS011;3777;48.722;8.110;2022-10-17T07:40:20;7.83;;;6.73;;
7471;SDS011;3777;48.722;8.110;2022-10-17T07:42:47;12.37;;;7.30;;
7471;SDS011;3777;48.722;8.110;2022-10-17T07:45:14;9.23;;;6.80;;
7471;SDS011;3777;48.722;8.110;2022-10-17T07:47:41;9.13;;;6.77;;
7471;SDS011;3777;48.722;8.110;2022-10-17T07:50:08;7.20;;;5.87;;
7471;SDS011;3777;48.722;8.110;2022-10-17T07:52:35;8.37;;;6.00;;
7471;SDS011;3777;48.722;8.110;2022-10-17T07:55:02;7.37;;;5.90;;
7471;SDS011;3777;48.722;8.110;2022-10-17T07:57:31;6.83;;;5.57;;
7471;SDS011;3777;48.722;8.110;2022-10-17T07:59:58;8.43;;;5.20;;
7471;SDS011;3777;48.722;8.110;2022-10-17T08:02:25;7.20;;;5.33;;
7471;SDS011;3777;48.722;8.110;2022-10-17T08:04:53;6.53;;;4.57;;
7471;SDS011;3777;48.722;8.110;2022-10-17T08:07:20;8.53;;;5.80;;
7471;SDS011;3777;48.722;8.110;2022-10-17T08:09:47;5.67;;;5.00;;
7471;SDS011;3777;48.722;8.110;2022-10-17T08:12:14;10.50;;;6.10;;
7471;SDS011;3777;48.722;8.110;2022-10-17T08:14:43;9.23;;;5.50;;
7471;SDS011;3777;48.722;8.110;2022-10-17T08:17:10;8.37;;;5.70;;
7471;SDS011;3777;48.722;8.110;2022-10-17T08:19:37;9.47;;;5.40;;
7471;SDS011;3777;48.722;8.110;2022-10-17T08:22:05;7.90;;;5.33;;
7471;SDS011;3777;48.722;8.110;2022-10-17T08:24:32;7.87;;;5.40;;
7471;SDS011;3777;48.722;8.110;2022-10-17T08:26:59;8.97;;;5.33;;
7471;SDS011;3777;48.722;8.110;2022-10-17T08:29:26;6.47;;;5.07;;
7471;SDS011;3777;48.722;8.110;2022-10-17T08:31:54;7.67;;;5.17;;
7471;SDS011;3777;48.722;8.110;2022-10-17T08:34:21;8.93;;;4.80;;
7471;SDS011;3777;48.722;8.110;2022-10-17T08:36:48;8.10;;;4.77;;
7471;SDS011;3777;48.722;8.110;2022-10-17T08:39:15;10.90;;;4.60;;
7471;SDS011;3777;48.722;8.110;2022-10-17T08:41:46;7.97;;;4.60;;
7471;SDS011;3777;48.722;8.110;2022-10-17T08:44:24;6.80;;;4.30;;
7471;SDS011;3777;48.722;8.110;2022-10-17T08:47:04;10.30;;;4.70;;
7471;SDS011;3777;48.722;8.110;2022-10-17T08:49:37;11.50;;;4.80;;
7471;SDS011;3777;48.722;8.110;2022-10-17T08:52:13;9.17;;;4.80;;
7471;SDS011;3777;48.722;8.110;2022-10-17T08:54:45;9.10;;;4.67;;
7471;SDS011;3777;48.722;8.110;2022-10-17T08:57:14;7.63;;;4.37;;
7471;SDS011;3777;48.722;8.110;2022-10-17T08:59:42;7.70;;;4.53;;
7471;SDS011;3777;48.722;8.110;2022-10-17T09:02:22;6.65;;;4.07;;
7471;SDS011;3777;48.722;8.110;2022-10-17T09:05:08;6.45;;;4.22;;
7471;SDS011;3777;48.722;8.110;2022-10-17T09:07:51;8.77;;;4.35;;
7471;SDS011;3777;48.722;8.110;2022-10-17T09:10:27;6.00;;;4.28;;
7471;SDS011;3777;48.722;8.110;2022-10-17T09:13:03;5.40;;;3.58;;
7471;SDS011;3777;48.722;8.110;2022-10-17T09:15:43;11.63;;;3.50;;
7471;SDS011;3777;48.722;8.110;2022-10-17T09:18:23;6.75;;;3.95;;
7471;SDS011;3777;48.722;8.110;2022-10-17T09:20:53;7.40;;;3.63;;
7471;SDS011;3777;48.722;8.110;2022-10-17T09:23:23;9.07;;;3.88;;
7471;SDS011;3777;48.722;8.110;2022-10-17T09:25:53;8.75;;;3.70;;
7471;SDS011;3777;48.722;8.110;2022-10-17T09:28:24;5.53;;;3.47;;
7471;SDS011;3777;48.722;8.110;2022-10-17T09:30:56;5.60;;;3.60;;
7471;SDS011;3777;48.722;8.110;2022-10-17T09:33:29;6.40;;;3.33;;
7471;SDS011;3777;48.722;8.110;2022-10-17T09:36:02;8.00;;;3.47;;
7471;SDS011;3777;48.722;8.110;2022-10-17T09:38:33;7.50;;;3.60;;
7471;SDS011;3777;48.722;8.110;2022-10-17T09:41:04;8.05;;;3.65;;
7471;SDS011;3777;48.722;8.110;2022-10-17T09:43:41;7.00;;;3.17;;
7471;SDS011;3777;48.722;8.110;2022-10-17T09:46:11;8.50;;;3.05;;
7471;SDS011;3777;48.722;8.110;2022-10-17T09:48:47;7.22;;;3.42;;
7471;SDS011;3777;48.722;8.110;2022-10-17T09:51:19;9.20;;;3.22;;
7471;SDS011;3777;48.722;8.110;2022-10-17T09:53:47;7.90;;;3.08;;
7471;SDS011;3777;48.722;8.110;2022-10-17T09:56:18;7.90;;;2.90;;
7471;SDS011;3777;48.722;8.110;2022-10-17T09:58:46;7.97;;;3.00;;
7471;SDS011;3777;48.722;8.110;2022-10-17T10:01:15;6.68;;;3.22;;
7471;SDS011;3777;48.722;8.110;2022-10-17T10:03:45;8.95;;;2.83;;
7471;SDS011;3777;48.722;8.110;2022-10-17T10:06:13;8.10;;;3.05;;
7471;SDS011;3777;48.722;8.110;2022-10-17T10:08:49;5.60;;;3.15;;
7471;SDS011;3777;48.722;8.110;2022-10-17T10:11:17;6.25;;;3.03;;
7471;SDS011;3777;48.722;8.110;2022-10-17T10:13:47;7.15;;;3.30;;
7471;SDS011;3777;48.722;8.110;2022-10-17T10:16:17;9.98;;;3.38;;
7471;SDS011;3777;48.722;8.110;2022-10-17T10:18:48;5.22;;;3.13;;
7471;SDS011;3777;48.722;8.110;2022-10-17T10:21:16;4.97;;;2.95;;
7471;SDS011;3777;48.722;8.110;2022-10-17T10:23:45;5.13;;;3.42;;
7471;SDS011;3777;48.722;8.110;2022-10-17T10:26:31;5.00;;;3.00;;
7471;SDS011;3777;48.722;8.110;2022-10-17T10:29:02;5.72;;;3.33;;
7471;SDS011;3777;48.722;8.110;2022-10-17T10:31:32;8.65;;;3.53;;
7471;SDS011;3777;48.722;8.110;2022-10-17T10:34:10;5.68;;;3.28;;
7471;SDS011;3777;48.722;8.110;2022-10-17T10:36:49;10.65;;;6.63;;
7471;SDS011;3777;48.722;8.110;2022-10-17T10:39:27;6.50;;;3.85;;
7471;SDS011;3777;48.722;8.110;2022-10-17T10:42:06;6.43;;;3.30;;
7471;SDS011;3777;48.722;8.110;2022-10-17T10:44:43;4.15;;;2.72;;
7471;SDS011;3777;48.722;8.110;2022-10-17T10:47:14;6.15;;;3.00;;
7471;SDS011;3777;48.722;8.110;2022-10-17T10:49:47;6.28;;;2.70;;
7471;SDS011;3777;48.722;8.110;2022-10-17T10:52:22;3.08;;;2.60;;
7471;SDS011;3777;48.722;8.110;2022-10-17T10:54:58;5.20;;;2.58;;
7471;SDS011;3777;48.722;8.110;2022-10-17T10:57:30;5.57;;;2.60;;
7471;SDS011;3777;48.722;8.110;2022-10-17T11:00:02;7.50;;;2.63;;
7471;SDS011;3777;48.722;8.110;2022-10-17T11:02:37;3.15;;;2.30;;
7471;SDS011;3777;48.722;8.110;2022-10-17T11:05:13;7.53;;;2.67;;
7471;SDS011;3777;48.722;8.110;2022-10-17T11:07:45;5.28;;;2.95;;
7471;SDS011;3777;48.722;8.110;2022-10-17T11:10:21;4.63;;;2.50;;
7471;SDS011;3777;48.722;8.110;2022-10-17T11:12:53;4.32;;;2.35;;
7471;SDS011;3777;48.722;8.110;2022-10-17T11:15:39;5.97;;;2.13;;
7471;SDS011;3777;48.722;8.110;2022-10-17T11:18:13;5.43;;;2.70;;
7471;SDS011;3777;48.722;8.110;2022-10-17T11:20:49;3.80;;;2.40;;
7471;SDS011;3777;48.722;8.110;2022-10-17T11:23:19;5.47;;;2.53;;
7471;SDS011;3777;48.722;8.110;2022-10-17T11:25:53;3.75;;;2.30;;
7471;SDS011;3777;48.722;8.110;2022-10-17T11:28:23;5.25;;;2.42;;
7471;SDS011;3777;48.722;8.110;2022-10-17T11:30:55;4.28;;;2.33;;
7471;SDS011;3777;48.722;8.110;2022-10-17T11:33:26;4.30;;;2.42;;
7471;SDS011;3777;48.722;8.110;2022-10-17T11:36:00;4.10;;;2.63;;
7471;SDS011;3777;48.722;8.110;2022-10-17T11:38:35;6.55;;;2.20;;
7471;SDS011;3777;48.722;8.110;2022-10-17T11:41:08;6.28;;;2.55;;
7471;SDS011;3777;48.722;8.110;2022-10-17T11:43:39;4.97;;;2.40;;
7471;SDS011;3777;48.722;8.110;2022-10-17T11:46:11;3.20;;;2.28;;
7471;SDS011;3777;48.722;8.110;2022-10-17T11:48:41;3.28;;;2.35;;
7471;SDS011;3777;48.722;8.110;2022-10-17T11:51:16;4.60;;;2.40;;
7471;SDS011;3777;48.722;8.110;2022-10-17T11:53:45;5.63;;;2.55;;
7471;SDS011;3777;48.722;8.110;2022-10-17T11:56:16;3.88;;;2.30;;
7471;SDS011;3777;48.722;8.110;2022-10-17T11:58:49;5.43;;;2.30;;
7471;SDS011;3777;48.722;8.110;2022-10-17T12:01:22;6.40;;;2.58;;
7471;SDS011;3777;48.722;8.110;2022-10-17T12:04:02;2.80;;;2.50;;
7471;SDS011;3777;48.722;8.110;2022-10-17T12:06:44;5.85;;;2.33;;
7471;SDS011;3777;48.722;8.110;2022-10-17T12:09:23;5.45;;;2.30;;
7471;SDS011;3777;48.722;8.110;2022-10-17T12:11:56;3.78;;;2.47;;
7471;SDS011;3777;48.722;8.110;2022-10-17T12:17:21;6.38;;;2.30;;
7471;SDS011;3777;48.722;8.110;2022-10-17T12:20:23;3.70;;;2.28;;
7471;SDS011;3777;48.722;8.110;2022-10-17T12:22:54;2.92;;;2.17;;
7471;SDS011;3777;48.722;8.110;2022-10-17T12:25:24;5.30;;;2.13;;
7471;SDS011;3777;48.722;8.110;2022-10-17T12:30:55;6.75;;;2.00;;
7471;SDS011;3777;48.722;8.110;2022-10-17T12:33:29;6.15;;;2.20;;
7471;SDS011;3777;48.722;8.110;2022-10-17T12:42:30;3.38;;;2.15;;
7471;SDS011;3777;48.722;8.110;2022-10-17T12:44:58;6.22;;;2.20;;
7471;SDS011;3777;48.722;8.110;2022-10-17T12:47:35;3.88;;;2.13;;
7471;SDS011;3777;48.722;8.110;2022-10-17T12:50:16;2.70;;;1.90;;
7471;SDS011;3777;48.722;8.110;2022-10-17T12:53:26;2.55;;;2.10;;
7471;SDS011;3777;48.722;8.110;2022-10-17T12:56:02;4.10;;;2.30;;
7471;SDS011;3777;48.722;8.110;2022-10-17T12:58:31;3.25;;;2.10;;
7471;SDS011;3777;48.722;8.110;2022-10-17T13:01:00;3.67;;;2.22;;
7471;SDS011;3777;48.722;8.110;2022-10-17T13:03:29;4.05;;;2.35;;
7471;SDS011;3777;48.722;8.110;2022-10-17T13:05:59;4.10;;;2.00;;
7471;SDS011;3777;48.722;8.110;2022-10-17T13:08:28;3.78;;;2.15;;
7471;SDS011;3777;48.722;8.110;2022-10-17T13:10:58;5.75;;;2.38;;
7471;SDS011;3777;48.722;8.110;2022-10-17T13:13:30;6.65;;;2.13;;
7471;SDS011;3777;48.722;8.110;2022-10-17T13:16:04;4.68;;;2.25;;
7471;SDS011;3777;48.722;8.110;2022-10-17T13:18:31;3.50;;;2.20;;
7471;SDS011;3777;48.722;8.110;2022-10-17T13:20:59;4.47;;;2.30;;
7471;SDS011;3777;48.722;8.110;2022-10-17T13:23:29;3.72;;;2.28;;
7471;SDS011;3777;48.722;8.110;2022-10-17T13:26:17;3.22;;;2.30;;
7471;SDS011;3777;48.722;8.110;2022-10-17T13:28:57;5.80;;;2.17;;
7471;SDS011;3777;48.722;8.110;2022-10-17T13:31:27;4.43;;;2.20;;
7471;SDS011;3777;48.722;8.110;2022-10-17T13:33:56;5.72;;;2.30;;
7471;SDS011;3777;48.722;8.110;2022-10-17T13:36:25;5.85;;;2.45;;
7471;SDS011;3777;48.722;8.110;2022-10-17T13:38:54;8.10;;;2.25;;
7471;SDS011;3777;48.722;8.110;2022-10-17T13:41:23;4.85;;;2.10;;
7471;SDS011;3777;48.722;8.110;2022-10-17T13:43:55;5.72;;;2.40;;
7471;SDS011;3777;48.722;8.110;2022-10-17T13:46:26;2.60;;;1.98;;
7471;SDS011;3777;48.722;8.110;2022-10-17T13:48:55;5.20;;;2.28;;
7471;SDS011;3777;48.722;8.110;2022-10-17T13:51:24;4.63;;;2.38;;
7471;SDS011;3777;48.722;8.110;2022-10-17T13:53:52;3.25;;;2.30;;
7471;SDS011;3777;48.722;8.110;2022-10-17T13:56:20;5.65;;;1.92;;
7471;SDS011;3777;48.722;8.110;2022-10-17T13:58:50;3.42;;;2.08;;
7471;SDS011;3777;48.722;8.110;2022-10-17T14:01:19;4.07;;;2.25;;
7471;SDS011;3777;48.722;8.110;2022-10-17T14:03:47;4.55;;;2.30;;
7471;SDS011;3777;48.722;8.110;2022-10-17T14:06:17;5.15;;;2.40;;
7471;SDS011;3777;48.722;8.110;2022-10-17T14:08:50;3.38;;;2.20;;
7471;SDS011;3777;48.722;8.110;2022-10-17T14:11:22;4.43;;;2.40;;
7471;SDS011;3777;48.722;8.110;2022-10-17T14:13:52;5.15;;;2.45;;
7471;SDS011;3777;48.722;8.110;2022-10-17T14:16:23;7.28;;;2.30;;
7471;SDS011;3777;48.722;8.110;2022-10-17T14:18:51;4.93;;;2.38;;
7471;SDS011;3777;48.722;8.110;2022-10-17T14:21:21;3.40;;;2.17;;
7471;SDS011;3777;48.722;8.110;2022-10-17T14:23:49;3.95;;;2.35;;
7471;SDS011;3777;48.722;8.110;2022-10-17T14:26:17;3.45;;;2.42;;
7471;SDS011;3777;48.722;8.110;2022-10-17T14:28:47;4.35;;;2.28;;
7471;SDS011;3777;48.722;8.110;2022-10-17T14:31:24;4.45;;;2.38;;
7471;SDS011;3777;48.722;8.110;2022-10-17T14:33:56;2.20;;;2.00;;
7471;SDS011;3777;48.722;8.110;2022-10-17T14:36:32;3.72;;;2.15;;
7471;SDS011;3777;48.722;8.110;2022-10-17T14:39:02;3.38;;;2.40;;
7471;SDS011;3777;48.722;8.110;2022-10-17T14:41:31;3.13;;;2.20;;
7471;SDS011;3777;48.722;8.110;2022-10-17T14:44:02;4.15;;;2.15;;
7471;SDS011;3777;48.722;8.110;2022-10-17T14:46:34;4.05;;;2.20;;
7471;SDS011;3777;48.722;8.110;2022-10-17T14:49:03;3.75;;;2.10;;
7471;SDS011;3777;48.722;8.110;2022-10-17T14:51:32;4.32;;;2.25;;
7471;SDS011;3777;48.722;8.110;2022-10-17T14:54:00;4.85;;;2.35;;
7471;SDS011;3777;48.722;8.110;2022-10-17T14:56:43;3.70;;;2.25;;
7471;SDS011;3777;48.722;8.110;2022-10-17T14:59:15;4.18;;;2.25;;
7471;SDS011;3777;48.722;8.110;2022-10-17T15:01:47;4.05;;;2.30;;
7471;SDS011;3777;48.722;8.110;2022-10-17T15:04:15;4.32;;;2.22;;
7471;SDS011;3777;48.722;8.110;2022-10-17T15:06:42;4.03;;;2.20;;
7471;SDS011;3777;48.722;8.110;2022-10-17T15:09:10;4.00;;;2.30;;
7471;SDS011;3777;48.722;8.110;2022-10-17T15:11:37;2.47;;;2.10;;
7471;SDS011;3777;48.722;8.110;2022-10-17T15:14:04;3.67;;;2.38;;
7471;SDS011;3777;48.722;8.110;2022-10-17T15:16:32;3.22;;;2.30;;
7471;SDS011;3777;48.722;8.110;2022-10-17T15:19:02;3.00;;;2.20;;
7471;SDS011;3777;48.722;8.110;2022-10-17T15:21:29;2.30;;;2.03;;
7471;SDS011;3777;48.722;8.110;2022-10-17T15:23:56;6.15;;;2.95;;
7471;SDS011;3777;48.722;8.110;2022-10-17T15:26:26;3.80;;;2.50;;
7471;SDS011;3777;48.722;8.110;2022-10-17T15:28:56;3.75;;;2.35;;
7471;SDS011;3777;48.722;8.110;2022-10-17T15:31:24;2.90;;;2.00;;
7471;SDS011;3777;48.722;8.110;2022-10-17T15:33:52;2.40;;;2.20;;
7471;SDS011;3777;48.722;8.110;2022-10-17T15:36:24;2.53;;;2.25;;
7471;SDS011;3777;48.722;8.110;2022-10-17T15:38:53;3.70;;;2.50;;
7471;SDS011;3777;48.722;8.110;2022-10-17T15:41:23;4.07;;;2.35;;
7471;SDS011;3777;48.722;8.110;2022-10-17T15:43:51;3.13;;;2.33;;
7471;SDS011;3777;48.722;8.110;2022-10-17T15:46:18;2.53;;;2.20;;
7471;SDS011;3777;48.722;8.110;2022-10-17T15:48:48;3.65;;;2.35;;